NCAR-RAP Real-Time Weather Data

Output produced by METARs form (17 December 2018  14:56 UTC)
found at http://weather.rap.ucar.edu/surface/
 
RJFR 171400Z 28019KT 9999 FEW030 SCT050 BKN070 10/M03 Q1017
RJFR 171300Z 27013KT 9999 FEW030 BKN050 BKN070 10/M03 Q1017
RJFR 171200Z 27018KT 9999 FEW030 BKN050 BKN070 10/M02 Q1017
RJFR 171100Z 27014KT 9999 FEW030 BKN050 BKN070 10/M02 Q1016
RJFR 171000Z 27016KT 9999 FEW030 SCT050 BKN070 10/M01 Q1016
RJFR 170900Z 28015KT 9999 FEW030 SCT045 BKN070 11/00 Q1015
RJFR 170846Z 28015G27KT 9999 FEW030 BKN040 BKN070 11/00 Q1015 RMK 1CU030 5CU040 7AC070 A3000
RJFR 170800Z 27011KT 250V020 9999 FEW030 BKN040 BKN070 11/M00 Q1015
RJFR 170700Z 26012KT 9999 FEW030 BKN040 BKN060 11/M00 Q1015
RJFR 170600Z 28012KT 9999 FEW030 SCT040 BKN060 11/M01 Q1015
RJFR 170500Z 30017KT 9999 FEW030 SCT050 11/M01 Q1014
RJFR 170427Z 29016G26KT 9999 FEW030 BKN040 BKN050 11/00 Q1014 RMK 1CU030 5CU040 7SC050 A2997
RJFR 170400Z 28020KT 9999 -SHRA FEW030 BKN040 BKN050 11/01 Q1015
RJFR 170300Z 28017KT 9999 -SHRA FEW030 BKN040 11/01 Q1015
RJFR 170225Z 29016G27KT 9999 FEW030 BKN050 12/00 Q1015 RMK 1CU030 5SC050 A3000
RJFR 170200Z 28016KT 9999 FEW030 12/M01 Q1016
RJFR 170100Z 29016KT 9999 FEW020 SCT060 11/01 Q1016
RJFR 170000Z 26015KT 9999 FEW020 SCT060 11/02 Q1016
RJFR 162300Z 27016G26KT 9999 FEW015 SCT060 10/04 Q1015
RJFR 162200Z 25013KT 9999 FEW015 BKN060 10/05 Q1014
RJFR 162100Z 24008KT 9999 FEW015 SCT035 BKN060 10/06 Q1013
RJFR 162000Z 24004KT 9999 FEW015 BKN050 10/07 Q1013
RJFR 161900Z 24003KT 9999 FEW015 BKN050 09/07 Q1013
RJFR 161800Z VRB02KT 9999 FEW015 SCT025 BKN050 09/07 Q1014
RJFR 161700Z 24003KT 9999 FEW010 SCT030 BKN/// 09/07 Q1014
RJFR 161600Z 33002KT 9999 FEW010 SCT070 BKN/// 09/07 Q1014
RJFR 161500Z 29002KT 9999 FEW008 SCT070 BKN/// 09/07 Q1014
RJFR 161400Z 21005KT 7000 FEW004 BKN060 BKN100 10/08 Q1015
RJFR 161300Z 20003KT 7000 -RA FEW005 BKN050 BKN080 10/08 Q1016
RJFR 161200Z 24003KT 7000 -RA FEW004 SCT025 BKN050 10/08 Q1017
RJFR 161131Z 28004KT 230V310 7000 -RA FEW004 SCT008 BKN015 10/08 Q1017 RMK 1ST004 3ST008 6CU015 A3004
RJFR 161100Z 30003KT 250V360 6000 RA FEW005 SCT010 BKN020 10/08 Q1017
RJFR 161027Z 36007KT 6000 -RA FEW005 SCT010 BKN020 10/08 Q1017 RMK 1ST005 3ST010 6CU020 A3003
RJFR 161000Z 36011KT 6000 -RA FEW003 BKN007 BKN020 10/08 Q1017
RJFR 160941Z 36006KT 6000 -RA FEW003 BKN007 BKN020 10/08 Q1017 RMK 1ST003 5ST007 7CU020 A3003
RJFR 160900Z 33005KT 9999 -RA FEW005 BKN025 BKN040 09/07 Q1017
RJFR 160800Z 32003KT 300V360 9000 -RA FEW008 SCT030 BKN045 08/06 Q1016
RJFR 160700Z VRB01KT 9999 -RA FEW015 SCT035 BKN045 08/06 Q1017
RJFR 160600Z 20004KT 9999 -RA FEW015 SCT050 BKN060 08/06 Q1018
RJFR 160500Z 16004KT 9999 FEW015 SCT040 BKN070 08/06 Q1018
RJFR 160400Z 16005KT 9999 -RA FEW005 SCT030 BKN050 08/06 Q1019
RJFR 160300Z 16004KT 120V190 9999 -SHRA FEW005 BKN040 BKN050 08/05 Q1020
RJFR 160200Z 18003KT 100V230 9999 -SHRA FEW008 BKN040 BKN050 08/05 Q1022
RJFR 160100Z 30004KT 8000 -SHRA FEW030 SCT035 BKN050 08/05 Q1023
RJFR 160000Z 34004KT 9999 FEW008 BKN035 BKN050 08/04 Q1023
RJFR 151300Z 20002KT 9999 FEW025 07/03 Q1027
RJFR 151200Z 21003KT 9999 FEW030 08/03 Q1028
RJFR 151100Z 32003KT 9999 FEW030 08/02 Q1028
RJFR 151000Z 31004KT 9999 FEW030 09/03 Q1028
RJFR 150900Z 00000KT 9999 FEW030 10/M00 Q1028
RJFR 150800Z 14003KT 110V170 9999 FEW025 10/M01 Q1028
RJFR 150700Z 15004KT 120V200 9999 FEW030 11/M01 Q1028
RJFR 150600Z 14005KT 9999 FEW030 11/01 Q1028
RJFR 150500Z 15005KT 9999 FEW030 10/02 Q1028
RJFR 150400Z 14004KT 110V170 9999 FEW030 10/02 Q1029
RJFR 150300Z 11003KT 070V150 9999 FEW025 10/02 Q1030